Snow/Ice From: 16-12-2017 16:00 Until: 17-12-2017 16:00 warning for: Snow/Ice Level: Yellow info button

Although rather usual in this region, locally or potentially dangerous phenomena are expected. (such as local winds, summer thunderstorms, rising streams or high waves) Be aware and pay attention to the latest weather updates, especially if you carry out activities exposed to weather or close to a stream or shoreline. 


Meteo18 Weather Cam more information Meteo18 Weather Cam


Thunder radar more information blitzortung!


warning for Snow/Ice more information rain snow radar


Visit our other weather sites:

Template documentation
and downloads

And another site



Weather Underground History page Text

Daily Summary for August 23, 2017 Units:  Both    English   Metric
« Previous Day
Next Day »
Daily Weekly Monthly Yearly Custom
  High: Low: Average:
Temperature: 80.1 °F /  26.7 °C 63.3 °F /  17.4 °C 71.4 °F /  21.9 °C
Dew Point: 66 °F /  18.9 °C 57.9 °F /  14.4 °C 62.8 °F /  17.1 °C
Humidity: 92 % 60 % 75 %
Wind Speed: 12 mph /  19.3 km/h - 3.6 mph /  5.8 km/h
Wind Gust: 18 mph /  29.0 km/h - -
Wind:- - West
Pressure: 30.1 in /  1018.8 hPa 30 in /  1014.8 hPa -
Precipitation: 0 in /  0.0 mm    
Historical Graphs
 
 
Tabular Data for August 23, 2017
Time Temperature Dew Point Pressure Wind Wind Speed Wind Gust Humidity Rainfall Rate (Hourly)
00:02 70.7 °F /  21.5 °C 61.2 °F /  16.2 °C 30 in /  1015.5 hPa North 1 mph /  1.6 km/h 1 mph /  1.6 km/h 72 % 0 in /  0.0 mm
00:07 70.5 °F /  21.4 °C 61.5 °F /  16.4 °C 30 in /  1015.5 hPa North 2 mph /  3.2 km/h 2 mph /  3.2 km/h 73 % 0 in /  0.0 mm
00:12 70.5 °F /  21.4 °C 61.5 °F /  16.4 °C 30 in /  1015.5 hPa North 1 mph /  1.6 km/h 2 mph /  3.2 km/h 73 % 0 in /  0.0 mm
00:17 70.3 °F /  21.3 °C 61.3 °F /  16.3 °C 30 in /  1015.5 hPa NNW 1 mph /  1.6 km/h 3 mph /  4.8 km/h 73 % 0 in /  0.0 mm
00:22 70.3 °F /  21.3 °C 61.3 °F /  16.3 °C 30 in /  1015.5 hPa Calm   3 mph /  4.8 km/h 73 % 0 in /  0.0 mm
00:27 70.3 °F /  21.3 °C 61.3 °F /  16.3 °C 30 in /  1015.1 hPa Calm   3 mph /  4.8 km/h 73 % 0 in /  0.0 mm
00:32 70.5 °F /  21.4 °C 61 °F /  16.1 °C 30 in /  1015.1 hPa Calm   3 mph /  4.8 km/h 72 % 0 in /  0.0 mm
00:37 70.5 °F /  21.4 °C 61 °F /  16.1 °C 30 in /  1015.1 hPa North 1 mph /  1.6 km/h 3 mph /  4.8 km/h 72 % 0 in /  0.0 mm
00:42 70.3 °F /  21.3 °C 61.3 °F /  16.3 °C 30 in /  1015.1 hPa Calm   3 mph /  4.8 km/h 73 % 0 in /  0.0 mm
00:52 70.2 °F /  21.2 °C 61.2 °F /  16.2 °C 30 in /  1015.5 hPa North 1 mph /  1.6 km/h 2 mph /  3.2 km/h 73 % 0 in /  0.0 mm
00:57 70 °F /  21.1 °C 61 °F /  16.1 °C 30 in /  1015.1 hPa North 2 mph /  3.2 km/h 3 mph /  4.8 km/h 73 % 0 in /  0.0 mm
01:02 69.8 °F /  21.0 °C 61.2 °F /  16.2 °C 30 in /  1015.1 hPa Calm   3 mph /  4.8 km/h 74 % 0 in /  0.0 mm
01:12 69.1 °F /  20.6 °C 60.8 °F /  16.0 °C 30 in /  1015.5 hPa NNW 2 mph /  3.2 km/h 2 mph /  3.2 km/h 75 % 0 in /  0.0 mm
01:22 68.5 °F /  20.3 °C 60.6 °F /  15.9 °C 30 in /  1015.1 hPa North 1 mph /  1.6 km/h 2 mph /  3.2 km/h 76 % 0 in /  0.0 mm
01:32 68.5 °F /  20.3 °C 60.6 °F /  15.9 °C 30 in /  1015.1 hPa Calm   2 mph /  3.2 km/h 76 % 0 in /  0.0 mm
01:37 68.5 °F /  20.3 °C 60.3 °F /  15.7 °C 30 in /  1015.1 hPa Calm   2 mph /  3.2 km/h 75 % 0 in /  0.0 mm
01:42 68.4 °F /  20.2 °C 60.4 °F /  15.8 °C 30 in /  1015.1 hPa NW 1 mph /  1.6 km/h 2 mph /  3.2 km/h 76 % 0 in /  0.0 mm
01:52 67.5 °F /  19.7 °C 60.4 °F /  15.8 °C 30 in /  1015.1 hPa NNW 1 mph /  1.6 km/h 2 mph /  3.2 km/h 78 % 0 in /  0.0 mm
02:02 67.3 °F /  19.6 °C 60.3 °F /  15.7 °C 30 in /  1015.1 hPa Calm   2 mph /  3.2 km/h 78 % 0 in /  0.0 mm
02:12 66.6 °F /  19.2 °C 60.3 °F /  15.7 °C 30 in /  1015.1 hPa NW 1 mph /  1.6 km/h 2 mph /  3.2 km/h 80 % 0 in /  0.0 mm
02:17 66.6 °F /  19.2 °C 60.3 °F /  15.7 °C 30 in /  1015.1 hPa WNW 1 mph /  1.6 km/h 2 mph /  3.2 km/h 80 % 0 in /  0.0 mm
02:22 66 °F /  18.9 °C 60.4 °F /  15.8 °C 30 in /  1015.1 hPa Calm   2 mph /  3.2 km/h 82 % 0 in /  0.0 mm
02:27 65.7 °F /  18.7 °C 60.1 °F /  15.6 °C 30 in /  1015.1 hPa WNW 1 mph /  1.6 km/h 2 mph /  3.2 km/h 82 % 0 in /  0.0 mm
02:32 65.1 °F /  18.4 °C 59.9 °F /  15.5 °C 30 in /  1015.1 hPa WNW 1 mph /  1.6 km/h 2 mph /  3.2 km/h 83 % 0 in /  0.0 mm
02:42 65.1 °F /  18.4 °C 60.1 °F /  15.6 °C 30 in /  1015.1 hPa WNW 2 mph /  3.2 km/h 2 mph /  3.2 km/h 84 % 0 in /  0.0 mm
02:47 64.9 °F /  18.3 °C 59.7 °F /  15.4 °C 30 in /  1015.1 hPa West 2 mph /  3.2 km/h 2 mph /  3.2 km/h 83 % 0 in /  0.0 mm
02:52 64.8 °F /  18.2 °C 59.9 °F /  15.5 °C 30 in /  1015.1 hPa WNW 1 mph /  1.6 km/h 2 mph /  3.2 km/h 84 % 0 in /  0.0 mm
03:02 64.9 °F /  18.3 °C 59.9 °F /  15.5 °C 30 in /  1015.1 hPa WNW 1 mph /  1.6 km/h 2 mph /  3.2 km/h 84 % 0 in /  0.0 mm
03:12 65.1 °F /  18.4 °C 59.5 °F /  15.3 °C 30 in /  1015.1 hPa Calm   2 mph /  3.2 km/h 82 % 0 in /  0.0 mm
03:17 64.9 °F /  18.3 °C 59.4 °F /  15.2 °C 30 in /  1014.8 hPa NNW 1 mph /  1.6 km/h 1 mph /  1.6 km/h 82 % 0 in /  0.0 mm
03:22 64.8 °F /  18.2 °C 59.5 °F /  15.3 °C 30 in /  1014.8 hPa Calm   1 mph /  1.6 km/h 83 % 0 in /  0.0 mm
03:32 64.4 °F /  18.0 °C 59.2 °F /  15.1 °C 30 in /  1014.8 hPa Calm   1 mph /  1.6 km/h 83 % 0 in /  0.0 mm
03:42 64 °F /  17.8 °C 59.2 °F /  15.1 °C 30 in /  1015.1 hPa WNW 1 mph /  1.6 km/h 1 mph /  1.6 km/h 84 % 0 in /  0.0 mm
03:47 64.2 °F /  17.9 °C 59 °F /  15.0 °C 30 in /  1015.1 hPa SW 1 mph /  1.6 km/h 2 mph /  3.2 km/h 83 % 0 in /  0.0 mm
03:52 64.2 °F /  17.9 °C 58.6 °F /  14.8 °C 30 in /  1015.1 hPa Calm   2 mph /  3.2 km/h 82 % 0 in /  0.0 mm
03:57 64 °F /  17.8 °C 58.5 °F /  14.7 °C 30 in /  1015.1 hPa Calm   2 mph /  3.2 km/h 82 % 0 in /  0.0 mm
04:02 64.2 °F /  17.9 °C 59 °F /  15.0 °C 30 in /  1015.1 hPa Calm   2 mph /  3.2 km/h 83 % 0 in /  0.0 mm
04:07 64.6 °F /  18.1 °C 59 °F /  15.0 °C 30 in /  1015.1 hPa Calm   2 mph /  3.2 km/h 82 % 0 in /  0.0 mm
04:12 64.8 °F /  18.2 °C 58.8 °F /  14.9 °C 30 in /  1015.1 hPa Calm   2 mph /  3.2 km/h 81 % 0 in /  0.0 mm
04:17 65.7 °F /  18.7 °C 59 °F /  15.0 °C 30 in /  1015.1 hPa Calm   2 mph /  3.2 km/h 79 % 0 in /  0.0 mm
04:22 65.8 °F /  18.8 °C 58.8 °F /  14.9 °C 30 in /  1015.1 hPa Calm   2 mph /  3.2 km/h 78 % 0 in /  0.0 mm
04:32 65.1 °F /  18.4 °C 58.5 °F /  14.7 °C 30 in /  1015.1 hPa Calm   2 mph /  3.2 km/h 79 % 0 in /  0.0 mm
04:37 64.9 °F /  18.3 °C 58.6 °F /  14.8 °C 30 in /  1015.1 hPa Calm   1 mph /  1.6 km/h 80 % 0 in /  0.0 mm
04:42 64.6 °F /  18.1 °C 58.3 °F /  14.6 °C 30 in /  1015.1 hPa Calm   1 mph /  1.6 km/h 80 % 0 in /  0.0 mm
04:47 64 °F /  17.8 °C 58.5 °F /  14.7 °C 30 in /  1015.1 hPa Calm   1 mph /  1.6 km/h 82 % 0 in /  0.0 mm
04:57 63.7 °F /  17.6 °C 58.1 °F /  14.5 °C 30 in /  1015.1 hPa Calm   1 mph /  1.6 km/h 82 % 0 in /  0.0 mm
05:07 63.3 °F /  17.4 °C 58.1 °F /  14.5 °C 30 in /  1015.5 hPa SW 1 mph /  1.6 km/h 1 mph /  1.6 km/h 83 % 0 in /  0.0 mm
05:12 63.9 °F /  17.7 °C 58.3 °F /  14.6 °C 30 in /  1015.1 hPa SSW 2 mph /  3.2 km/h 2 mph /  3.2 km/h 82 % 0 in /  0.0 mm
05:22 63.9 °F /  17.7 °C 57.9 °F /  14.4 °C 30 in /  1015.1 hPa WSW 1 mph /  1.6 km/h 3 mph /  4.8 km/h 81 % 0 in /  0.0 mm
05:32 63.9 °F /  17.7 °C 58.6 °F /  14.8 °C 30 in /  1015.5 hPa Calm   3 mph /  4.8 km/h 83 % 0 in /  0.0 mm
05:42 65.5 °F /  18.6 °C 60.4 °F /  15.8 °C 30 in /  1015.5 hPa West 3 mph /  4.8 km/h 4 mph /  6.4 km/h 84 % 0 in /  0.0 mm
05:52 65.8 °F /  18.8 °C 62.4 °F /  16.9 °C 30 in /  1015.5 hPa West 10 mph /  16.1 km/h 11 mph /  17.7 km/h 89 % 0 in /  0.0 mm
05:57 65.8 °F /  18.8 °C 62.8 °F /  17.1 °C 30 in /  1015.5 hPa WNW 8 mph /  12.9 km/h 12 mph /  19.3 km/h 90 % 0 in /  0.0 mm
06:02 66 °F /  18.9 °C 63.3 °F /  17.4 °C 30 in /  1015.8 hPa WSW 6 mph /  9.7 km/h 12 mph /  19.3 km/h 91 % 0 in /  0.0 mm
06:12 66.4 °F /  19.1 °C 63.7 °F /  17.6 °C 30 in /  1015.8 hPa West 6 mph /  9.7 km/h 15 mph /  24.1 km/h 91 % 0 in /  0.0 mm
06:17 66.4 °F /  19.1 °C 64 °F /  17.8 °C 30 in /  1015.8 hPa West 7 mph /  11.3 km/h 13 mph /  20.9 km/h 92 % 0 in /  0.0 mm
06:22 66.4 °F /  19.1 °C 64 °F /  17.8 °C 30 in /  1015.8 hPa WSW 6 mph /  9.7 km/h 13 mph /  20.9 km/h 92 % 0 in /  0.0 mm
06:32 66.6 °F /  19.2 °C 63.9 °F /  17.7 °C 30 in /  1015.8 hPa WSW 2 mph /  3.2 km/h 12 mph /  19.3 km/h 91 % 0 in /  0.0 mm
06:42 66.7 °F /  19.3 °C 64 °F /  17.8 °C 30 in /  1015.8 hPa West 6 mph /  9.7 km/h 11 mph /  17.7 km/h 91 % 0 in /  0.0 mm
06:52 66.7 °F /  19.3 °C 63.7 °F /  17.6 °C 30 in /  1016.1 hPa WNW 5 mph /  8.0 km/h 10 mph /  16.1 km/h 90 % 0 in /  0.0 mm
07:02 66.7 °F /  19.3 °C 63.7 °F /  17.6 °C 30 in /  1016.1 hPa WNW 5 mph /  8.0 km/h 17 mph /  27.4 km/h 90 % 0 in /  0.0 mm
07:12 66.9 °F /  19.4 °C 63.9 °F /  17.7 °C 30 in /  1016.1 hPa SW 6 mph /  9.7 km/h 13 mph /  20.9 km/h 90 % 0 in /  0.0 mm
07:17 66.9 °F /  19.4 °C 63.5 °F /  17.5 °C 30 in /  1016.5 hPa West 4 mph /  6.4 km/h 11 mph /  17.7 km/h 89 % 0 in /  0.0 mm
07:22 66.9 °F /  19.4 °C 63.5 °F /  17.5 °C 30 in /  1016.5 hPa WNW 3 mph /  4.8 km/h 11 mph /  17.7 km/h 89 % 0 in /  0.0 mm
07:32 66.9 °F /  19.4 °C 63.3 °F /  17.4 °C 30 in /  1016.5 hPa West 7 mph /  11.3 km/h 11 mph /  17.7 km/h 88 % 0 in /  0.0 mm
07:42 66.7 °F /  19.3 °C 62.8 °F /  17.1 °C 30 in /  1016.8 hPa West 6 mph /  9.7 km/h 13 mph /  20.9 km/h 87 % 0 in /  0.0 mm
07:47 66.7 °F /  19.3 °C 62.8 °F /  17.1 °C 30 in /  1016.8 hPa SW 5 mph /  8.0 km/h 17 mph /  27.4 km/h 87 % 0 in /  0.0 mm
07:57 66.9 °F /  19.4 °C 63 °F /  17.2 °C 30 in /  1016.8 hPa WSW 3 mph /  4.8 km/h 17 mph /  27.4 km/h 87 % 0 in /  0.0 mm
08:02 66.9 °F /  19.4 °C 63 °F /  17.2 °C 30 in /  1016.8 hPa SW 3 mph /  4.8 km/h 17 mph /  27.4 km/h 87 % 0 in /  0.0 mm
08:07 66.9 °F /  19.4 °C 63 °F /  17.2 °C 30 in /  1016.8 hPa WSW 6 mph /  9.7 km/h 17 mph /  27.4 km/h 87 % 0 in /  0.0 mm
08:17 66.9 °F /  19.4 °C 63 °F /  17.2 °C 30 in /  1016.8 hPa SW 5 mph /  8.0 km/h 14 mph /  22.5 km/h 87 % 0 in /  0.0 mm
08:22 66.9 °F /  19.4 °C 63 °F /  17.2 °C 30 in /  1016.8 hPa SW 2 mph /  3.2 km/h 14 mph /  22.5 km/h 87 % 0 in /  0.0 mm
08:32 67.1 °F /  19.5 °C 62.8 °F /  17.1 °C 30 in /  1017.2 hPa SW 6 mph /  9.7 km/h 13 mph /  20.9 km/h 86 % 0 in /  0.0 mm
08:42 67.5 °F /  19.7 °C 62.8 °F /  17.1 °C 30 in /  1017.2 hPa SSW 5 mph /  8.0 km/h 17 mph /  27.4 km/h 85 % 0 in /  0.0 mm
08:47 67.8 °F /  19.9 °C 62.8 °F /  17.1 °C 30 in /  1017.2 hPa West 8 mph /  12.9 km/h 14 mph /  22.5 km/h 84 % 0 in /  0.0 mm
08:52 67.8 °F /  19.9 °C 62.4 °F /  16.9 °C 30 in /  1017.2 hPa SSE 5 mph /  8.0 km/h 14 mph /  22.5 km/h 83 % 0 in /  0.0 mm
09:02 68.4 °F /  20.2 °C 62.6 °F /  17.0 °C 30 in /  1017.2 hPa SSW 5 mph /  8.0 km/h 14 mph /  22.5 km/h 82 % 0 in /  0.0 mm
09:12 68.4 °F /  20.2 °C 62.6 °F /  17.0 °C 30 in /  1017.2 hPa WSW 10 mph /  16.1 km/h 15 mph /  24.1 km/h 82 % 0 in /  0.0 mm
09:17 68.5 °F /  20.3 °C 62.8 °F /  17.1 °C 30 in /  1017.2 hPa WSW 10 mph /  16.1 km/h 18 mph /  29.0 km/h 82 % 0 in /  0.0 mm
09:22 68.4 °F /  20.2 °C 62.6 °F /  17.0 °C 30 in /  1017.2 hPa SW 8 mph /  12.9 km/h 18 mph /  29.0 km/h 82 % 0 in /  0.0 mm
09:32 68.5 °F /  20.3 °C 63.1 °F /  17.3 °C 30 in /  1017.2 hPa South 4 mph /  6.4 km/h 17 mph /  27.4 km/h 83 % 0 in /  0.0 mm
09:42 68.7 °F /  20.4 °C 63 °F /  17.2 °C 30 in /  1017.2 hPa WSW 7 mph /  11.3 km/h 16 mph /  25.7 km/h 82 % 0 in /  0.0 mm
09:52 68.5 °F /  20.3 °C 62.8 °F /  17.1 °C 30.1 in /  1017.5 hPa WSW 10 mph /  16.1 km/h 13 mph /  20.9 km/h 82 % 0 in /  0.0 mm
09:57 68.5 °F /  20.3 °C 62.8 °F /  17.1 °C 30 in /  1017.2 hPa WSW 9 mph /  14.5 km/h 18 mph /  29.0 km/h 82 % 0 in /  0.0 mm
10:02 68.4 °F /  20.2 °C 62.6 °F /  17.0 °C 30.1 in /  1017.5 hPa SSW 3 mph /  4.8 km/h 18 mph /  29.0 km/h 82 % 0 in /  0.0 mm
10:07 68.5 °F /  20.3 °C 62.8 °F /  17.1 °C 30.1 in /  1017.5 hPa WSW 2 mph /  3.2 km/h 16 mph /  25.7 km/h 82 % 0 in /  0.0 mm
10:12 68.5 °F /  20.3 °C 62.8 °F /  17.1 °C 30.1 in /  1017.5 hPa SW 10 mph /  16.1 km/h 16 mph /  25.7 km/h 82 % 0 in /  0.0 mm
10:17 68.5 °F /  20.3 °C 62.8 °F /  17.1 °C 30.1 in /  1017.5 hPa West 11 mph /  17.7 km/h 14 mph /  22.5 km/h 82 % 0 in /  0.0 mm
10:22 68.4 °F /  20.2 °C 62.6 °F /  17.0 °C 30.1 in /  1017.5 hPa SSW 5 mph /  8.0 km/h 14 mph /  22.5 km/h 82 % 0 in /  0.0 mm
10:32 68.4 °F /  20.2 °C 62.6 °F /  17.0 °C 30.1 in /  1017.5 hPa West 7 mph /  11.3 km/h 15 mph /  24.1 km/h 82 % 0 in /  0.0 mm
10:42 68.4 °F /  20.2 °C 62.6 °F /  17.0 °C 30.1 in /  1017.5 hPa WSW 4 mph /  6.4 km/h 14 mph /  22.5 km/h 82 % 0 in /  0.0 mm
10:47 68.5 °F /  20.3 °C 62.8 °F /  17.1 °C 30.1 in /  1017.5 hPa West 4 mph /  6.4 km/h 12 mph /  19.3 km/h 82 % 0 in /  0.0 mm
10:52 68.5 °F /  20.3 °C 62.4 °F /  16.9 °C 30.1 in /  1017.5 hPa WSW 6 mph /  9.7 km/h 12 mph /  19.3 km/h 81 % 0 in /  0.0 mm
11:02 68.5 °F /  20.3 °C 62.4 °F /  16.9 °C 30.1 in /  1017.5 hPa WSW 3 mph /  4.8 km/h 10 mph /  16.1 km/h 81 % 0 in /  0.0 mm
11:12 68.7 °F /  20.4 °C 62.6 °F /  17.0 °C 30.1 in /  1017.5 hPa SW 9 mph /  14.5 km/h 10 mph /  16.1 km/h 81 % 0 in /  0.0 mm
11:17 68.9 °F /  20.5 °C 62.8 °F /  17.1 °C 30.1 in /  1017.8 hPa West 3 mph /  4.8 km/h 12 mph /  19.3 km/h 81 % 0 in /  0.0 mm
11:22 69.1 °F /  20.6 °C 63 °F /  17.2 °C 30.1 in /  1017.8 hPa WSW 7 mph /  11.3 km/h 12 mph /  19.3 km/h 81 % 0 in /  0.0 mm
11:32 69.3 °F /  20.7 °C 62.8 °F /  17.1 °C 30.1 in /  1017.8 hPa WSW 4 mph /  6.4 km/h 12 mph /  19.3 km/h 80 % 0 in /  0.0 mm
11:42 69.3 °F /  20.7 °C 62.4 °F /  16.9 °C 30.1 in /  1017.8 hPa WSW 8 mph /  12.9 km/h 14 mph /  22.5 km/h 79 % 0 in /  0.0 mm
11:52 69.4 °F /  20.8 °C 62.6 °F /  17.0 °C 30.1 in /  1017.8 hPa WSW 8 mph /  12.9 km/h 15 mph /  24.1 km/h 79 % 0 in /  0.0 mm
12:02 69.6 °F /  20.9 °C 62.8 °F /  17.1 °C 30.1 in /  1017.8 hPa SSW 7 mph /  11.3 km/h 14 mph /  22.5 km/h 79 % 0 in /  0.0 mm
12:12 69.8 °F /  21.0 °C 62.6 °F /  17.0 °C 30.1 in /  1017.8 hPa WSW 9 mph /  14.5 km/h 13 mph /  20.9 km/h 78 % 0 in /  0.0 mm
12:17 70.2 °F /  21.2 °C 63 °F /  17.2 °C 30.1 in /  1017.8 hPa South 3 mph /  4.8 km/h 16 mph /  25.7 km/h 78 % 0 in /  0.0 mm
12:22 70.3 °F /  21.3 °C 62.8 °F /  17.1 °C 30.1 in /  1017.8 hPa WSW 8 mph /  12.9 km/h 16 mph /  25.7 km/h 77 % 0 in /  0.0 mm
12:32 70.9 °F /  21.6 °C 63.3 °F /  17.4 °C 30.1 in /  1017.8 hPa SW 7 mph /  11.3 km/h 16 mph /  25.7 km/h 77 % 0 in /  0.0 mm
12:42 71.1 °F /  21.7 °C 63.1 °F /  17.3 °C 30.1 in /  1017.8 hPa West 4 mph /  6.4 km/h 13 mph /  20.9 km/h 76 % 0 in /  0.0 mm
12:52 71.8 °F /  22.1 °C 63.5 °F /  17.5 °C 30.1 in /  1017.8 hPa SW 10 mph /  16.1 km/h 16 mph /  25.7 km/h 75 % 0 in /  0.0 mm
13:02 72 °F /  22.2 °C 63.1 °F /  17.3 °C 30.1 in /  1017.8 hPa SW 12 mph /  19.3 km/h 12 mph /  19.3 km/h 74 % 0 in /  0.0 mm
13:07 72.1 °F /  22.3 °C 63.3 °F /  17.4 °C 30.1 in /  1018.2 hPa West 7 mph /  11.3 km/h 16 mph /  25.7 km/h 74 % 0 in /  0.0 mm
13:12 72.7 °F /  22.6 °C 63.5 °F /  17.5 °C 30.1 in /  1017.8 hPa West 6 mph /  9.7 km/h 16 mph /  25.7 km/h 73 % 0 in /  0.0 mm
13:22 73.8 °F /  23.2 °C 64.2 °F /  17.9 °C 30.1 in /  1017.8 hPa West 6 mph /  9.7 km/h 14 mph /  22.5 km/h 72 % 0 in /  0.0 mm
13:32 74.5 °F /  23.6 °C 64 °F /  17.8 °C 30.1 in /  1017.8 hPa West 5 mph /  8.0 km/h 13 mph /  20.9 km/h 70 % 0 in /  0.0 mm
13:42 75.4 °F /  24.1 °C 64 °F /  17.8 °C 30.1 in /  1017.8 hPa WSW 6 mph /  9.7 km/h 13 mph /  20.9 km/h 68 % 0 in /  0.0 mm
13:52 75.9 °F /  24.4 °C 63.7 °F /  17.6 °C 30.1 in /  1017.8 hPa West 9 mph /  14.5 km/h 14 mph /  22.5 km/h 66 % 0 in /  0.0 mm
14:02 76.8 °F /  24.9 °C 64.6 °F /  18.1 °C 30.1 in /  1017.8 hPa SW 10 mph /  16.1 km/h 14 mph /  22.5 km/h 66 % 0 in /  0.0 mm
14:07 76.6 °F /  24.8 °C 64.9 °F /  18.3 °C 30.1 in /  1017.5 hPa West 7 mph /  11.3 km/h 14 mph /  22.5 km/h 67 % 0 in /  0.0 mm
14:12 76.8 °F /  24.9 °C 64.9 °F /  18.3 °C 30.1 in /  1017.5 hPa SW 5 mph /  8.0 km/h 14 mph /  22.5 km/h 67 % 0 in /  0.0 mm
14:17 77.2 °F /  25.1 °C 64.6 °F /  18.1 °C 30.1 in /  1017.8 hPa WNW 6 mph /  9.7 km/h 13 mph /  20.9 km/h 65 % 0 in /  0.0 mm
14:22 77 °F /  25.0 °C 64.8 °F /  18.2 °C 30.1 in /  1017.5 hPa West 7 mph /  11.3 km/h 13 mph /  20.9 km/h 66 % 0 in /  0.0 mm
14:27 77.4 °F /  25.2 °C 64.8 °F /  18.2 °C 30.1 in /  1017.5 hPa WSW 10 mph /  16.1 km/h 13 mph /  20.9 km/h 65 % 0 in /  0.0 mm
14:32 77.2 °F /  25.1 °C 64.9 °F /  18.3 °C 30.1 in /  1017.5 hPa West 10 mph /  16.1 km/h 13 mph /  20.9 km/h 66 % 0 in /  0.0 mm
14:37 77.4 °F /  25.2 °C 65.1 °F /  18.4 °C 30.1 in /  1017.5 hPa WSW 6 mph /  9.7 km/h 15 mph /  24.1 km/h 66 % 0 in /  0.0 mm
14:42 77.5 °F /  25.3 °C 64.8 °F /  18.2 °C 30.1 in /  1017.5 hPa SW 8 mph /  12.9 km/h 15 mph /  24.1 km/h 65 % 0 in /  0.0 mm
14:52 77.7 °F /  25.4 °C 64.9 °F /  18.3 °C 30.1 in /  1017.8 hPa WSW 4 mph /  6.4 km/h 15 mph /  24.1 km/h 65 % 0 in /  0.0 mm
14:57 77.9 °F /  25.5 °C 65.1 °F /  18.4 °C 30.1 in /  1017.5 hPa WNW 7 mph /  11.3 km/h 15 mph /  24.1 km/h 65 % 0 in /  0.0 mm
15:02 78.1 °F /  25.6 °C 65.3 °F /  18.5 °C 30.1 in /  1017.8 hPa WSW 8 mph /  12.9 km/h 15 mph /  24.1 km/h 65 % 0 in /  0.0 mm
15:12 77.9 °F /  25.5 °C 65.1 °F /  18.4 °C 30.1 in /  1017.5 hPa West 8 mph /  12.9 km/h 15 mph /  24.1 km/h 65 % 0 in /  0.0 mm
15:17 78.4 °F /  25.8 °C 65.7 °F /  18.7 °C 30.1 in /  1017.5 hPa West 8 mph /  12.9 km/h 13 mph /  20.9 km/h 65 % 0 in /  0.0 mm
15:22 78.4 °F /  25.8 °C 65.3 °F /  18.5 °C 30.1 in /  1017.5 hPa WSW 7 mph /  11.3 km/h 13 mph /  20.9 km/h 64 % 0 in /  0.0 mm
15:32 78.4 °F /  25.8 °C 65.3 °F /  18.5 °C 30.1 in /  1017.5 hPa WNW 7 mph /  11.3 km/h 13 mph /  20.9 km/h 64 % 0 in /  0.0 mm
15:37 78.4 °F /  25.8 °C 65.3 °F /  18.5 °C 30.1 in /  1017.5 hPa West 8 mph /  12.9 km/h 12 mph /  19.3 km/h 64 % 0 in /  0.0 mm
15:42 78.4 °F /  25.8 °C 65.3 °F /  18.5 °C 30.1 in /  1017.5 hPa SW 3 mph /  4.8 km/h 12 mph /  19.3 km/h 64 % 0 in /  0.0 mm
15:47 78.4 °F /  25.8 °C 65.3 °F /  18.5 °C 30.1 in /  1017.5 hPa WNW 4 mph /  6.4 km/h 11 mph /  17.7 km/h 64 % 0 in /  0.0 mm
15:52 78.8 °F /  26.0 °C 65.1 °F /  18.4 °C 30.1 in /  1017.5 hPa West 9 mph /  14.5 km/h 11 mph /  17.7 km/h 63 % 0 in /  0.0 mm
15:57 78.8 °F /  26.0 °C 65.7 °F /  18.7 °C 30.1 in /  1017.5 hPa WNW 4 mph /  6.4 km/h 11 mph /  17.7 km/h 64 % 0 in /  0.0 mm
16:02 79.2 °F /  26.2 °C 65.5 °F /  18.6 °C 30.1 in /  1017.5 hPa WNW 7 mph /  11.3 km/h 11 mph /  17.7 km/h 63 % 0 in /  0.0 mm
16:12 79.2 °F /  26.2 °C 65.5 °F /  18.6 °C 30.1 in /  1017.5 hPa West 5 mph /  8.0 km/h 13 mph /  20.9 km/h 63 % 0 in /  0.0 mm
16:17 79 °F /  26.1 °C 65.8 °F /  18.8 °C 30.1 in /  1017.5 hPa West 6 mph /  9.7 km/h 13 mph /  20.9 km/h 64 % 0 in /  0.0 mm
16:22 78.8 °F /  26.0 °C 65.7 °F /  18.7 °C 30.1 in /  1017.5 hPa West 8 mph /  12.9 km/h 13 mph /  20.9 km/h 64 % 0 in /  0.0 mm
16:32 78.8 °F /  26.0 °C 65.1 °F /  18.4 °C 30.1 in /  1017.5 hPa West 7 mph /  11.3 km/h 13 mph /  20.9 km/h 63 % 0 in /  0.0 mm
16:42 78.6 °F /  25.9 °C 65.5 °F /  18.6 °C 30.1 in /  1017.5 hPa SW 12 mph /  19.3 km/h 13 mph /  20.9 km/h 64 % 0 in /  0.0 mm
16:47 78.4 °F /  25.8 °C 65.7 °F /  18.7 °C 30.1 in /  1017.5 hPa West 6 mph /  9.7 km/h 14 mph /  22.5 km/h 65 % 0 in /  0.0 mm
16:52 79 °F /  26.1 °C 65.8 °F /  18.8 °C 30.1 in /  1017.5 hPa WNW 9 mph /  14.5 km/h 14 mph /  22.5 km/h 64 % 0 in /  0.0 mm
17:02 79 °F /  26.1 °C 64.8 °F /  18.2 °C 30.1 in /  1017.5 hPa WSW 6 mph /  9.7 km/h 14 mph /  22.5 km/h 62 % 0 in /  0.0 mm
17:12 79.3 °F /  26.3 °C 65.7 °F /  18.7 °C 30 in /  1017.2 hPa NW 4 mph /  6.4 km/h 13 mph /  20.9 km/h 63 % 0 in /  0.0 mm
17:17 79.2 °F /  26.2 °C 65.5 °F /  18.6 °C 30 in /  1017.2 hPa WSW 2 mph /  3.2 km/h 10 mph /  16.1 km/h 63 % 0 in /  0.0 mm
17:22 79.2 °F /  26.2 °C 65.5 °F /  18.6 °C 30.1 in /  1017.5 hPa West 5 mph /  8.0 km/h 10 mph /  16.1 km/h 63 % 0 in /  0.0 mm
17:27 79.2 °F /  26.2 °C 65.8 °F /  18.8 °C 30 in /  1017.2 hPa WSW 5 mph /  8.0 km/h 10 mph /  16.1 km/h 64 % 0 in /  0.0 mm
17:32 79.3 °F /  26.3 °C 66 °F /  18.9 °C 30 in /  1017.2 hPa West 3 mph /  4.8 km/h 10 mph /  16.1 km/h 64 % 0 in /  0.0 mm
17:37 79.5 °F /  26.4 °C 65.3 °F /  18.5 °C 30.1 in /  1017.5 hPa WSW 4 mph /  6.4 km/h 10 mph /  16.1 km/h 62 % 0 in /  0.0 mm
17:42 79.3 °F /  26.3 °C 65.7 °F /  18.7 °C 30.1 in /  1017.5 hPa WNW 5 mph /  8.0 km/h 10 mph /  16.1 km/h 63 % 0 in /  0.0 mm
17:47 79.3 °F /  26.3 °C 65.1 °F /  18.4 °C 30.1 in /  1017.5 hPa WSW 3 mph /  4.8 km/h 9 mph /  14.5 km/h 62 % 0 in /  0.0 mm
17:52 79.2 °F /  26.2 °C 65.5 °F /  18.6 °C 30.1 in /  1017.5 hPa WSW 3 mph /  4.8 km/h 9 mph /  14.5 km/h 63 % 0 in /  0.0 mm
17:57 79.3 °F /  26.3 °C 65.7 °F /  18.7 °C 30.1 in /  1017.5 hPa West 2 mph /  3.2 km/h 8 mph /  12.9 km/h 63 % 0 in /  0.0 mm
18:02 79.2 °F /  26.2 °C 65.5 °F /  18.6 °C 30.1 in /  1017.5 hPa WNW 4 mph /  6.4 km/h 8 mph /  12.9 km/h 63 % 0 in /  0.0 mm
18:07 79.2 °F /  26.2 °C 65.5 °F /  18.6 °C 30.1 in /  1017.5 hPa NW 4 mph /  6.4 km/h 8 mph /  12.9 km/h 63 % 0 in /  0.0 mm
18:12 79.2 °F /  26.2 °C 65.8 °F /  18.8 °C 30.1 in /  1017.5 hPa West 6 mph /  9.7 km/h 8 mph /  12.9 km/h 64 % 0 in /  0.0 mm
18:17 79 °F /  26.1 °C 65.3 °F /  18.5 °C 30.1 in /  1017.5 hPa WNW 3 mph /  4.8 km/h 9 mph /  14.5 km/h 63 % 0 in /  0.0 mm
18:22 78.8 °F /  26.0 °C 65.1 °F /  18.4 °C 30.1 in /  1017.5 hPa WNW 1 mph /  1.6 km/h 9 mph /  14.5 km/h 63 % 0 in /  0.0 mm
18:32 79.5 °F /  26.4 °C 65.3 °F /  18.5 °C 30 in /  1017.2 hPa WSW 4 mph /  6.4 km/h 8 mph /  12.9 km/h 62 % 0 in /  0.0 mm
18:37 79.5 °F /  26.4 °C 65.3 °F /  18.5 °C 30 in /  1017.2 hPa WNW 3 mph /  4.8 km/h 8 mph /  12.9 km/h 62 % 0 in /  0.0 mm
18:42 79.7 °F /  26.5 °C 66 °F /  18.9 °C 30 in /  1017.2 hPa WNW 5 mph /  8.0 km/h 7 mph /  11.3 km/h 63 % 0 in /  0.0 mm
18:52 80.1 °F /  26.7 °C 65.5 °F /  18.6 °C 30.1 in /  1017.5 hPa North 2 mph /  3.2 km/h 8 mph /  12.9 km/h 61 % 0 in /  0.0 mm
18:57 80.1 °F /  26.7 °C 65.5 °F /  18.6 °C 30 in /  1017.2 hPa WNW 5 mph /  8.0 km/h 6 mph /  9.7 km/h 61 % 0 in /  0.0 mm
19:02 79.9 °F /  26.6 °C 64.8 °F /  18.2 °C 30 in /  1017.2 hPa NW 3 mph /  4.8 km/h 6 mph /  9.7 km/h 60 % 0 in /  0.0 mm
19:12 79.3 °F /  26.3 °C 64.8 °F /  18.2 °C 30.1 in /  1017.5 hPa NW 4 mph /  6.4 km/h 7 mph /  11.3 km/h 61 % 0 in /  0.0 mm
19:17 79.5 °F /  26.4 °C 65.3 °F /  18.5 °C 30.1 in /  1017.5 hPa NW 1 mph /  1.6 km/h 7 mph /  11.3 km/h 62 % 0 in /  0.0 mm
19:22 79.5 °F /  26.4 °C 65.3 °F /  18.5 °C 30.1 in /  1017.5 hPa WNW 2 mph /  3.2 km/h 7 mph /  11.3 km/h 62 % 0 in /  0.0 mm
19:32 79.2 °F /  26.2 °C 64.6 °F /  18.1 °C 30.1 in /  1017.5 hPa WSW 6 mph /  9.7 km/h 7 mph /  11.3 km/h 61 % 0 in /  0.0 mm
19:37 79 °F /  26.1 °C 64.8 °F /  18.2 °C 30.1 in /  1017.5 hPa West 5 mph /  8.0 km/h 8 mph /  12.9 km/h 62 % 0 in /  0.0 mm
19:42 78.6 °F /  25.9 °C 64.6 °F /  18.1 °C 30.1 in /  1017.5 hPa WNW 4 mph /  6.4 km/h 8 mph /  12.9 km/h 62 % 0 in /  0.0 mm
19:47 78.6 °F /  25.9 °C 64.6 °F /  18.1 °C 30.1 in /  1017.5 hPa WNW 1 mph /  1.6 km/h 9 mph /  14.5 km/h 62 % 0 in /  0.0 mm
19:52 78.8 °F /  26.0 °C 64.8 °F /  18.2 °C 30.1 in /  1017.5 hPa NW 3 mph /  4.8 km/h 9 mph /  14.5 km/h 62 % 0 in /  0.0 mm
19:57 78.3 °F /  25.7 °C 64.2 °F /  17.9 °C 30.1 in /  1017.5 hPa WNW 6 mph /  9.7 km/h 9 mph /  14.5 km/h 62 % 0 in /  0.0 mm
20:02 77.9 °F /  25.5 °C 64.2 °F /  17.9 °C 30.1 in /  1017.5 hPa WNW 2 mph /  3.2 km/h 9 mph /  14.5 km/h 63 % 0 in /  0.0 mm
20:12 77.2 °F /  25.1 °C 64.6 °F /  18.1 °C 30.1 in /  1017.5 hPa West 1 mph /  1.6 km/h 9 mph /  14.5 km/h 65 % 0 in /  0.0 mm
20:17 76.6 °F /  24.8 °C 64.4 °F /  18.0 °C 30.1 in /  1017.8 hPa West 1 mph /  1.6 km/h 6 mph /  9.7 km/h 66 % 0 in /  0.0 mm
20:27 75.6 °F /  24.2 °C 63.9 °F /  17.7 °C 30.1 in /  1017.8 hPa WNW 2 mph /  3.2 km/h 5 mph /  8.0 km/h 67 % 0 in /  0.0 mm
20:32 75.2 °F /  24.0 °C 63.9 °F /  17.7 °C 30.1 in /  1017.5 hPa WNW 2 mph /  3.2 km/h 5 mph /  8.0 km/h 68 % 0 in /  0.0 mm
20:37 74.8 °F /  23.8 °C 64 °F /  17.8 °C 30.1 in /  1017.5 hPa WNW 1 mph /  1.6 km/h 5 mph /  8.0 km/h 69 % 0 in /  0.0 mm
20:42 74.5 °F /  23.6 °C 63.7 °F /  17.6 °C 30.1 in /  1017.5 hPa WNW 2 mph /  3.2 km/h 5 mph /  8.0 km/h 69 % 0 in /  0.0 mm
20:47 73.9 °F /  23.3 °C 63.5 °F /  17.5 °C 30.1 in /  1017.8 hPa Calm   3 mph /  4.8 km/h 70 % 0 in /  0.0 mm
20:52 73.8 °F /  23.2 °C 63.3 °F /  17.4 °C 30.1 in /  1017.8 hPa NW 1 mph /  1.6 km/h 3 mph /  4.8 km/h 70 % 0 in /  0.0 mm
20:57 73.2 °F /  22.9 °C 63.3 °F /  17.4 °C 30.1 in /  1017.8 hPa WNW 3 mph /  4.8 km/h 3 mph /  4.8 km/h 71 % 0 in /  0.0 mm
21:02 72.9 °F /  22.7 °C 63.3 °F /  17.4 °C 30.1 in /  1017.8 hPa NW 1 mph /  1.6 km/h 3 mph /  4.8 km/h 72 % 0 in /  0.0 mm
21:07 72.5 °F /  22.5 °C 63 °F /  17.2 °C 30.1 in /  1017.8 hPa WNW 3 mph /  4.8 km/h 3 mph /  4.8 km/h 72 % 0 in /  0.0 mm
21:12 72.3 °F /  22.4 °C 62.8 °F /  17.1 °C 30.1 in /  1017.8 hPa WNW 1 mph /  1.6 km/h 3 mph /  4.8 km/h 72 % 0 in /  0.0 mm
21:17 72.1 °F /  22.3 °C 62.6 °F /  17.0 °C 30.1 in /  1017.8 hPa Calm   4 mph /  6.4 km/h 72 % 0 in /  0.0 mm
21:22 72 °F /  22.2 °C 62.8 °F /  17.1 °C 30.1 in /  1017.8 hPa WNW 1 mph /  1.6 km/h 4 mph /  6.4 km/h 73 % 0 in /  0.0 mm
21:32 71.6 °F /  22.0 °C 63 °F /  17.2 °C 30.1 in /  1017.8 hPa Calm   3 mph /  4.8 km/h 74 % 0 in /  0.0 mm
21:37 71.2 °F /  21.8 °C 62.6 °F /  17.0 °C 30.1 in /  1017.8 hPa North 1 mph /  1.6 km/h 4 mph /  6.4 km/h 74 % 0 in /  0.0 mm
21:42 71.1 °F /  21.7 °C 62.8 °F /  17.1 °C 30.1 in /  1017.8 hPa Calm   4 mph /  6.4 km/h 75 % 0 in /  0.0 mm
21:47 70.9 °F /  21.6 °C 62.6 °F /  17.0 °C 30.1 in /  1017.8 hPa Calm   3 mph /  4.8 km/h 75 % 0 in /  0.0 mm
21:52 70.5 °F /  21.4 °C 62.6 °F /  17.0 °C 30.1 in /  1018.2 hPa NNW 1 mph /  1.6 km/h 3 mph /  4.8 km/h 76 % 0 in /  0.0 mm
21:57 70.3 °F /  21.3 °C 62.4 °F /  16.9 °C 30.1 in /  1018.2 hPa North 1 mph /  1.6 km/h 2 mph /  3.2 km/h 76 % 0 in /  0.0 mm
22:02 70.2 °F /  21.2 °C 62.6 °F /  17.0 °C 30.1 in /  1018.2 hPa North 2 mph /  3.2 km/h 2 mph /  3.2 km/h 77 % 0 in /  0.0 mm
22:07 70.2 °F /  21.2 °C 62.6 °F /  17.0 °C 30.1 in /  1018.2 hPa NNW 1 mph /  1.6 km/h 2 mph /  3.2 km/h 77 % 0 in /  0.0 mm
22:12 70.2 °F /  21.2 °C 62.6 °F /  17.0 °C 30.1 in /  1018.2 hPa North 1 mph /  1.6 km/h 2 mph /  3.2 km/h 77 % 0 in /  0.0 mm
22:17 70.2 °F /  21.2 °C 62.6 °F /  17.0 °C 30.1 in /  1018.2 hPa North 1 mph /  1.6 km/h 2 mph /  3.2 km/h 77 % 0 in /  0.0 mm
22:22 70 °F /  21.1 °C 62.4 °F /  16.9 °C 30.1 in /  1018.2 hPa Calm   2 mph /  3.2 km/h 77 % 0 in /  0.0 mm
22:27 69.6 °F /  20.9 °C 62.4 °F /  16.9 °C 30.1 in /  1018.2 hPa Calm   2 mph /  3.2 km/h 78 % 0 in /  0.0 mm
22:32 69.3 °F /  20.7 °C 62.1 °F /  16.7 °C 30.1 in /  1018.2 hPa Calm   2 mph /  3.2 km/h 78 % 0 in /  0.0 mm
22:37 68.7 °F /  20.4 °C 61.9 °F /  16.6 °C 30.1 in /  1018.2 hPa Calm   1 mph /  1.6 km/h 79 % 0 in /  0.0 mm
22:42 68.5 °F /  20.3 °C 62.1 °F /  16.7 °C 30.1 in /  1018.5 hPa Calm   1 mph /  1.6 km/h 80 % 0 in /  0.0 mm
22:47 68.5 °F /  20.3 °C 62.1 °F /  16.7 °C 30.1 in /  1018.5 hPa Calm   1 mph /  1.6 km/h 80 % 0 in /  0.0 mm
22:52 68.5 °F /  20.3 °C 62.1 °F /  16.7 °C 30.1 in /  1018.5 hPa NNW 1 mph /  1.6 km/h 1 mph /  1.6 km/h 80 % 0 in /  0.0 mm
23:02 68 °F /  20.0 °C 61.9 °F /  16.6 °C 30.1 in /  1018.5 hPa Calm   1 mph /  1.6 km/h 81 % 0 in /  0.0 mm
23:12 67.8 °F /  19.9 °C 62.1 °F /  16.7 °C 30.1 in /  1018.5 hPa NNW 1 mph /  1.6 km/h 1 mph /  1.6 km/h 82 % 0 in /  0.0 mm
23:17 67.8 °F /  19.9 °C 61.7 °F /  16.5 °C 30.1 in /  1018.5 hPa NNW 1 mph /  1.6 km/h 2 mph /  3.2 km/h 81 % 0 in /  0.0 mm
23:22 67.6 °F /  19.8 °C 61.5 °F /  16.4 °C 30.1 in /  1018.5 hPa Calm   2 mph /  3.2 km/h 81 % 0 in /  0.0 mm
23:27 67.5 °F /  19.7 °C 61.7 °F /  16.5 °C 30.1 in /  1018.5 hPa Calm   1 mph /  1.6 km/h 82 % 0 in /  0.0 mm
23:32 66.9 °F /  19.4 °C 61.2 °F /  16.2 °C 30.1 in /  1018.5 hPa Calm   1 mph /  1.6 km/h 82 % 0 in /  0.0 mm
23:37 66.6 °F /  19.2 °C 61.5 °F /  16.4 °C 30.1 in /  1018.5 hPa Calm   1 mph /  1.6 km/h 84 % 0 in /  0.0 mm
23:42 66.6 °F /  19.2 °C 61.5 °F /  16.4 °C 30.1 in /  1018.8 hPa Calm   1 mph /  1.6 km/h 84 % 0 in /  0.0 mm
23:47 66.2 °F /  19.0 °C 61.2 °F /  16.2 °C 30.1 in /  1018.5 hPa NW 1 mph /  1.6 km/h 1 mph /  1.6 km/h 84 % 0 in /  0.0 mm
23:52 66.2 °F /  19.0 °C 61.5 °F /  16.4 °C 30.1 in /  1018.5 hPa Calm   1 mph /  1.6 km/h 85 % 0 in /  0.0 mm
23:57 65.8 °F /  18.8 °C 60.8 °F /  16.0 °C 30.1 in /  1018.5 hPa Calm   1 mph /  1.6 km/h 84 % 0 in /  0.0 mm
Meteo18
Compliments of Weather Underground - 4 mb

Script developed by  Jim McMurry - jmcmurry@mwt.net Adapted for the template by  Wim van der Kuil - Leuven-Template.eu

You find our weather info also at:

European Weather Network

Weather Underground

Equipment we use:

Weather-station
Davis Vue

Weather-program
Meteohub

Weather-server
Raspberry PI 2 B+

Provider
1 and 1

Davis Vue

Meteohub

Raspberry PI 2 B+

1 and 1